Madison, MN (56256)

12:35 PM CDT on April 20, 2018 (GMT -0500)
Madison North | | Change Station
Active Advisory: Flood Warning

Elev 1109 ft 45.02 °N, 96.19 °W | Updated 9 seconds ago

Clear
Clear
45.2 °F
Feels Like 42 °F
N
6.0
Wind Variable Wind from North

Today
High -- | Low -- °F
--% Chance of Precip.
Yesterday
High -- | Low -- °F
Precip. -- in
Pressure 30.45 in
Visibility 10.0 miles
Clouds Clear
Windchill 42 °F
Dew Point 29 °F
Humidity 54%
Rainfall 0.00 in
Snow Depth Not available.
6:31 AM 8:16 PM
Waxing Crescent, 26% visible
METAR KDXX 201715Z AUTO 12006KT 10SM CLR 05/M01 A3045 RMK AO2
Pressure 30.45 in
Visibility 10.0 miles
Clouds Clear
Windchill 42 °F
Dew Point 29 °F
Humidity 54%
Rainfall 0.00 in
Snow Depth Not available.
6:31 AM 8:16 PM
Waxing Crescent, 26% visible
METAR KDXX 201715Z AUTO 12006KT 10SM CLR 05/M01 A3045 RMK AO2

Get Your Daily Forecast Email!

Thanks for signing up!

Be on the lookout for a verification email in your inbox.

You'll start receiving severe weather alerts in your inbox..

×

10-Day Weather Forecast

Almanac

Astronomy

Apr. 20, 2018 Rise Set
Actual Time
Civil Twilight
Nautical Twilight
Astronomical Twilight
Moon
Length of Visible Light
Length of Day
Tomorrow will be .
, % of the Moon is Illuminated

Today's Extremes

State Highs State Lows

Community

WunderPhotos

Category 6

Welcome to Category 6. This is the collective home for Weather Underground's featured writeups by Dr. Jeff Masters (right), Bob Henson (left), Chris Burt, and other regular contributors.

Nearby

Air Quality

  Air Quality AQ Index Pollutant
Not available.

Snow Depth

Station Depth Elevation

Earthquake Activity

City Distance Mag. Time & Date
Minimum magnitude displayed is 2.5.

Coastal Water Temperatures

Place Temperature

Stations

Nearby Weather Stations

Station Location Temp. Windchill Dew Point Humidity Wind Precip. Elev Updated Type
                   

Watches & Warnings

Flood Warning
Issued: 10:59 AM CDT Apr. 20, 2018 – National Weather Service

... Flood Warning now expected to end further notice... the Flood
Warning continues for
the Minnesota river at Montevideo.
* From late Saturday night until further notice.
* At 10:00 am Friday the stage was 12.8 feet.
* Minor flooding is forecast.
* Flood stage is 14.0 feet.
* Forecast... rise above flood stage by Sunday morning and continue to
rise to near 15.5 feet by Friday morning. Additional rises are
possible thereafter.
* Impact... at 14.0 feet... low lying areas and some roads along the
river begin flooding, along with some basements of houses along the
river.


Lat... Lon 4503 9578 4492 9562 4486 9570 4497 9587